createdAt,value
2023-03-01T00:02:11.547Z,-3.51
2023-03-01T00:07:13.447Z,-3.53
2023-03-01T00:12:15.157Z,-3.66
2023-03-01T00:17:16.823Z,-3.58
2023-03-01T00:22:18.419Z,-3.67
2023-03-01T00:27:20.024Z,-3.66
2023-03-01T00:32:21.652Z,-3.86
2023-03-01T00:37:24.066Z,-3.85
2023-03-01T00:42:25.697Z,-3.94
2023-03-01T00:47:30.034Z,-3.89
2023-03-01T00:52:31.649Z,-4.05
2023-03-01T00:57:34.440Z,-4.06
2023-03-01T01:02:36.671Z,-4.11
2023-03-01T01:07:38.603Z,-3.96
2023-03-01T01:12:40.253Z,-4.16
2023-03-01T01:17:42.043Z,-3.95
2023-03-01T01:22:43.660Z,-4.09
2023-03-01T01:27:46.318Z,-4.15
2023-03-01T01:32:47.919Z,-4.19
2023-03-01T01:37:49.530Z,-4.34
2023-03-01T01:42:51.723Z,-4.46
2023-03-01T01:47:56.501Z,-4.39
2023-03-01T01:52:58.827Z,-4.31
2023-03-01T01:58:05.849Z,-4.16
2023-03-01T02:03:12.826Z,-4.75
2023-03-01T02:08:17.465Z,-4.39
2023-03-01T02:13:19.209Z,-4.44
2023-03-01T02:18:24.580Z,-4.20
2023-03-01T02:23:26.870Z,-4.19
2023-03-01T02:28:36.444Z,-4.30
2023-03-01T02:33:40.004Z,-4.72
2023-03-01T02:38:43.095Z,-4.83
2023-03-01T02:43:44.957Z,-4.80
2023-03-01T02:48:55.792Z,-4.92
2023-03-01T02:54:11.044Z,-4.89
2023-03-01T02:59:12.787Z,-5.04
2023-03-01T03:04:18.079Z,-5.02
2023-03-01T03:09:23.210Z,-4.92
2023-03-01T03:14:24.833Z,-5.24
2023-03-01T03:19:26.666Z,-4.95
2023-03-01T03:24:39.295Z,-4.93
2023-03-01T03:29:41.003Z,-4.95
2023-03-01T03:34:42.641Z,-4.98
2023-03-01T03:39:44.238Z,-4.91
2023-03-01T03:44:45.844Z,-5.04
2023-03-01T03:49:47.479Z,-5.07
2023-03-01T03:54:49.090Z,-5.00
2023-03-01T03:59:50.693Z,-5.01
2023-03-01T04:04:53.428Z,-5.11
2023-03-01T04:09:55.026Z,-5.54
2023-03-01T04:14:56.687Z,-5.17
2023-03-01T04:19:59.928Z,-5.40
2023-03-01T04:25:03.035Z,-5.42
2023-03-01T04:30:05.099Z,-5.54
2023-03-01T04:35:06.994Z,-5.51
2023-03-01T04:40:17.301Z,-5.51
2023-03-01T04:45:19.217Z,-5.52
2023-03-01T04:50:22.659Z,-5.47
2023-03-01T04:55:26.842Z,-5.35
2023-03-01T05:00:28.518Z,-5.45
2023-03-01T05:05:37.215Z,-5.58
2023-03-01T05:10:39.827Z,-5.52
2023-03-01T05:15:41.851Z,-5.63
2023-03-01T05:20:43.905Z,-5.64
2023-03-01T05:25:45.907Z,-5.58
2023-03-01T05:30:48.389Z,-5.66
2023-03-01T05:35:51.442Z,-5.85
2023-03-01T05:40:53.149Z,-5.81
2023-03-01T05:45:54.817Z,-5.81
2023-03-01T05:51:01.280Z,-5.88
2023-03-01T05:56:05.626Z,-5.81
2023-03-01T06:01:13.365Z,-5.49
2023-03-01T06:06:14.978Z,-5.67
2023-03-01T06:11:16.943Z,-5.76
2023-03-01T06:16:18.577Z,-5.73
2023-03-01T06:21:20.197Z,-5.33
2023-03-01T06:26:21.805Z,-5.43
2023-03-01T06:31:23.460Z,-5.55
2023-03-01T06:36:25.203Z,-5.36
2023-03-01T06:41:26.977Z,-4.91
2023-03-01T06:46:28.856Z,-3.27
2023-03-01T06:51:30.693Z,-2.30
2023-03-01T06:56:33.512Z,-2.39
2023-03-01T07:01:35.320Z,-3.84
2023-03-01T07:06:37.005Z,-1.49
2023-03-01T07:11:38.615Z,-1.46
2023-03-01T07:16:40.239Z,-2.36
2023-03-01T07:21:41.881Z,-2.82
2023-03-01T07:26:43.525Z,-1.67
2023-03-01T07:31:45.304Z,-2.85
2023-03-01T07:36:47.049Z,-0.20
2023-03-01T07:41:48.779Z,1.91
2023-03-01T07:46:57.390Z,-0.89
2023-03-01T07:51:59.327Z,1.05
2023-03-01T07:57:00.960Z,1.10
2023-03-01T08:02:02.668Z,1.47
2023-03-01T08:07:06.628Z,0.68
2023-03-01T08:12:08.454Z,1.14
2023-03-01T08:17:10.093Z,2.23
2023-03-01T08:22:11.958Z,5.79
2023-03-01T08:27:14.344Z,8.52
2023-03-01T08:32:16.112Z,11.62
2023-03-01T08:37:17.862Z,12.97
2023-03-01T08:42:19.460Z,14.54
2023-03-01T08:47:21.089Z,13.29
2023-03-01T08:52:23.463Z,14.15
2023-03-01T08:57:25.083Z,11.09
2023-03-01T09:02:26.765Z,9.91
2023-03-01T09:07:31.386Z,8.71
2023-03-01T09:12:33.047Z,8.33
2023-03-01T09:17:34.668Z,9.04
2023-03-01T09:22:36.284Z,10.36
2023-03-01T09:27:37.892Z,12.82
2023-03-01T09:32:43.680Z,9.62
2023-03-01T09:37:45.635Z,9.72
2023-03-01T09:43:09.750Z,8.46
2023-03-01T09:48:19.777Z,8.69
2023-03-01T09:53:26.617Z,8.81
2023-03-01T09:58:47.060Z,5.91
2023-03-01T10:04:06.300Z,7.49
2023-03-01T10:09:18.866Z,8.73
2023-03-01T10:14:52.509Z,7.85
2023-03-01T10:19:56.119Z,9.89
2023-03-01T10:25:00.809Z,11.40
2023-03-01T10:30:21.036Z,11.49
2023-03-01T10:35:25.737Z,9.49
2023-03-01T10:40:27.564Z,9.90
2023-03-01T10:45:40.086Z,11.35
2023-03-01T10:50:44.599Z,12.07
2023-03-01T10:55:46.323Z,14.24
2023-03-01T11:00:51.246Z,13.57
2023-03-01T11:05:56.648Z,15.12
2023-03-01T11:11:27.203Z,14.97
2023-03-01T11:16:49.668Z,13.18
2023-03-01T11:21:55.727Z,16.16
2023-03-01T11:27:01.048Z,15.55
2023-03-01T11:32:08.594Z,13.51
2023-03-01T11:37:26.015Z,14.50
2023-03-01T11:42:53.203Z,14.07
2023-03-01T11:48:11.927Z,14.08
2023-03-01T11:53:27.886Z,14.74
2023-03-01T11:58:54.159Z,15.69
2023-03-01T12:04:23.483Z,14.20
2023-03-01T12:09:37.292Z,13.84
2023-03-01T12:14:48.094Z,13.80
2023-03-01T12:20:16.755Z,11.94
2023-03-01T12:25:35.826Z,14.36
2023-03-01T12:30:56.161Z,14.18
2023-03-01T12:36:12.899Z,12.89
2023-03-01T12:41:29.735Z,12.10
2023-03-01T12:46:45.455Z,10.28
2023-03-01T12:52:11.708Z,12.01
2023-03-01T12:57:38.749Z,12.68
2023-03-01T13:02:49.202Z,11.42
2023-03-01T13:08:03.562Z,11.18
2023-03-01T13:13:34.559Z,11.50
2023-03-01T13:18:36.218Z,10.07
2023-03-01T13:23:40.840Z,11.39
2023-03-01T13:28:45.162Z,11.57
2023-03-01T13:33:50.921Z,10.79
2023-03-01T13:38:56.254Z,9.19
2023-03-01T13:43:58.802Z,9.18
2023-03-01T13:49:01.378Z,10.18
2023-03-01T13:54:03.174Z,8.72
2023-03-01T13:59:18.552Z,9.86
2023-03-01T14:04:36.837Z,10.23
2023-03-01T14:09:45.039Z,9.53
2023-03-01T14:14:57.904Z,10.79
2023-03-01T14:20:24.342Z,9.35
2023-03-01T14:25:33.415Z,9.05
2023-03-01T14:30:42.674Z,9.45
2023-03-01T14:35:57.675Z,8.75
2023-03-01T14:41:07.150Z,7.41
2023-03-01T14:46:20.098Z,6.51
2023-03-01T14:51:22.481Z,7.12
2023-03-01T14:56:24.101Z,6.57
2023-03-01T15:01:25.880Z,6.11
2023-03-01T15:06:27.752Z,6.26
2023-03-01T15:11:34.226Z,6.21
2023-03-01T15:16:42.389Z,5.69
2023-03-01T15:21:48.033Z,5.88
2023-03-01T15:26:58.547Z,5.79
2023-03-01T15:32:07.034Z,5.78
2023-03-01T15:37:38.231Z,5.83
2023-03-01T15:42:39.868Z,5.83
2023-03-01T15:47:42.712Z,5.66
2023-03-01T15:52:44.496Z,5.62
2023-03-01T15:57:46.333Z,5.42
2023-03-01T16:02:47.962Z,5.36
2023-03-01T16:07:50.270Z,5.10
2023-03-01T16:12:53.621Z,4.86
2023-03-01T16:17:55.386Z,4.28
2023-03-01T16:23:01.459Z,4.05
2023-03-01T16:28:09.621Z,4.01
2023-03-01T16:33:33.321Z,3.87
2023-03-01T16:38:33.569Z,3.66
2023-03-01T16:43:35.215Z,3.41
2023-03-01T16:48:36.837Z,3.27
2023-03-01T16:53:39.048Z,3.15
2023-03-01T16:58:41.531Z,2.73
2023-03-01T17:03:44.091Z,2.25
2023-03-01T17:08:45.709Z,1.98
2023-03-01T17:13:47.818Z,1.61
2023-03-01T17:18:50.069Z,1.97
2023-03-01T17:23:56.431Z,1.85
2023-03-01T17:28:59.215Z,1.71
2023-03-01T17:34:01.734Z,1.64
2023-03-01T17:39:03.456Z,1.55
2023-03-01T17:44:05.172Z,1.36
2023-03-01T17:49:06.831Z,1.14
2023-03-01T17:54:08.469Z,1.06
2023-03-01T17:59:10.082Z,0.87
2023-03-01T18:04:12.155Z,0.63
2023-03-01T18:09:14.780Z,0.67
2023-03-01T18:14:16.462Z,0.72
2023-03-01T18:19:18.149Z,0.57
2023-03-01T18:24:19.990Z,0.59
2023-03-01T18:29:21.610Z,0.52
2023-03-01T18:34:24.159Z,0.16
2023-03-01T18:39:25.852Z,0.32
2023-03-01T18:44:27.475Z,0.06
2023-03-01T18:49:29.165Z,-0.08
2023-03-01T18:54:30.932Z,0.04
2023-03-01T18:59:32.692Z,0.11
2023-03-01T19:04:34.372Z,-0.19
2023-03-01T19:09:36.383Z,-0.29
2023-03-01T19:14:38.053Z,-0.21
2023-03-01T19:19:40.005Z,0.01
2023-03-01T19:24:41.614Z,-0.03
2023-03-01T19:29:43.290Z,-0.27
2023-03-01T19:34:46.685Z,-0.63
2023-03-01T19:39:48.307Z,-0.60
2023-03-01T19:44:49.910Z,-0.71
2023-03-01T19:49:51.504Z,-0.71
2023-03-01T19:54:58.145Z,-0.64
2023-03-01T20:00:06.273Z,-0.65
2023-03-01T20:05:14.002Z,-1.12
2023-03-01T20:10:15.743Z,-1.07
2023-03-01T20:15:17.373Z,-0.97
2023-03-01T20:20:19.075Z,-1.27
2023-03-01T20:25:20.717Z,-0.87
2023-03-01T20:30:22.324Z,-1.06
2023-03-01T20:35:24.044Z,-0.99
2023-03-01T20:40:28.266Z,-1.11
2023-03-01T20:45:29.944Z,-1.23
2023-03-01T20:50:31.746Z,-1.35
2023-03-01T20:55:33.635Z,-1.33
2023-03-01T21:00:35.716Z,-1.46
2023-03-01T21:05:37.430Z,-1.46
2023-03-01T21:10:39.067Z,-1.48
2023-03-01T21:15:40.682Z,-1.62
2023-03-01T21:20:42.773Z,-1.61
2023-03-01T21:25:45.401Z,-1.62
2023-03-01T21:30:47.030Z,-1.67
2023-03-01T21:35:48.933Z,-1.63
2023-03-01T21:40:50.647Z,-1.70
2023-03-01T21:45:52.366Z,-1.80
2023-03-01T21:50:58.436Z,-1.84
2023-03-01T21:56:01.494Z,-1.66
2023-03-01T22:01:12.299Z,-1.90
2023-03-01T22:06:19.875Z,-1.89
2023-03-01T22:11:22.639Z,-1.81
2023-03-01T22:16:28.225Z,-1.85
2023-03-01T22:21:29.929Z,-1.99
2023-03-01T22:26:37.509Z,-2.01
2023-03-01T22:31:39.760Z,-2.06
2023-03-01T22:36:41.516Z,-2.00
2023-03-01T22:41:46.028Z,-2.11
2023-03-01T22:46:48.191Z,-1.98
2023-03-01T22:51:50.743Z,-1.92
2023-03-01T22:56:52.438Z,-2.10
2023-03-01T23:01:54.636Z,-2.13
2023-03-01T23:06:56.813Z,-2.13
2023-03-01T23:12:00.378Z,-2.18
2023-03-01T23:17:02.628Z,-2.57
2023-03-01T23:22:04.917Z,-2.52
2023-03-01T23:27:06.854Z,-2.44
2023-03-01T23:32:09.256Z,-2.63
2023-03-01T23:37:10.923Z,-2.48
2023-03-01T23:42:12.529Z,-2.61
2023-03-01T23:47:14.188Z,-2.77
2023-03-01T23:52:17.312Z,-2.90
2023-03-01T23:57:19.947Z,-3.17
